createdAt,value
2019-05-07T00:00:12.646Z,69.80
2019-05-07T00:01:12.265Z,70.01
2019-05-07T00:02:13.360Z,69.73
2019-05-07T00:03:12.354Z,70.14
2019-05-07T00:04:12.925Z,70.04
2019-05-07T00:05:12.034Z,70.04
2019-05-07T00:06:12.367Z,69.94
2019-05-07T00:07:13.016Z,69.90
2019-05-07T00:08:12.202Z,70.04
2019-05-07T00:09:12.257Z,70.04
2019-05-07T00:10:12.811Z,70.35
2019-05-07T00:11:12.725Z,70.32
2019-05-07T00:12:12.571Z,70.35
2019-05-07T00:13:12.891Z,70.35
2019-05-07T00:14:12.616Z,70.66
2019-05-07T00:15:12.599Z,70.56
2019-05-07T00:16:12.808Z,70.56
2019-05-07T00:17:12.935Z,70.97
2019-05-07T00:18:12.744Z,71.07
2019-05-07T00:19:12.926Z,71.28
2019-05-07T00:20:12.709Z,71.48
2019-05-07T00:21:12.604Z,71.58
2019-05-07T00:22:12.534Z,71.69
2019-05-07T00:23:12.397Z,72.20
2019-05-07T00:24:12.986Z,72.51
2019-05-07T00:25:12.382Z,73.02
2019-05-07T00:26:13.049Z,73.33
2019-05-07T00:27:12.953Z,74.36
2019-05-07T00:28:12.249Z,74.46
2019-05-07T00:29:12.801Z,75.12
2019-05-07T00:30:12.634Z,75.32
2019-05-07T00:31:12.363Z,76.35
2019-05-07T00:32:12.129Z,76.66
2019-05-07T00:33:12.999Z,76.66
2019-05-07T00:34:12.596Z,76.66
2019-05-07T00:35:12.965Z,77.07
2019-05-07T00:36:12.380Z,77.51
2019-05-07T00:37:12.943Z,77.83
2019-05-07T00:38:12.803Z,77.93
2019-05-07T00:39:12.348Z,78.44
2019-05-07T00:40:12.909Z,78.24
2019-05-07T00:41:12.322Z,78.86
2019-05-07T00:42:12.595Z,78.96
2019-05-07T00:43:12.011Z,78.86
2019-05-07T00:44:10.572Z,79.37
2019-05-07T00:45:19.694Z,79.68
2019-05-07T00:46:12.966Z,79.58
2019-05-07T00:47:12.702Z,79.37
2019-05-07T00:48:12.526Z,79.58
2019-05-07T00:49:12.580Z,79.68
2019-05-07T00:50:12.851Z,79.88
2019-05-07T00:51:10.523Z,79.88
2019-05-07T00:52:12.235Z,80.09
2019-05-07T00:53:10.491Z,80.09
2019-05-07T00:54:12.297Z,80.19
2019-05-07T00:55:12.022Z,80.33
2019-05-07T00:56:12.331Z,80.54
2019-05-07T00:57:12.426Z,81.05
2019-05-07T00:58:10.434Z,80.95
2019-05-07T00:59:12.915Z,81.37
2019-05-07T01:00:10.412Z,81.05
2019-05-07T01:01:10.417Z,81.57
2019-05-07T01:02:10.389Z,81.37
2019-05-07T01:03:12.646Z,81.57
2019-05-07T01:04:12.001Z,81.88
2019-05-07T01:05:12.279Z,81.98
2019-05-07T01:06:12.733Z,82.09
2019-05-07T01:07:12.255Z,81.57
2019-05-07T01:08:10.327Z,81.88
2019-05-07T01:09:12.334Z,82.29
2019-05-07T01:10:12.589Z,82.54
2019-05-07T01:11:10.310Z,82.64
2019-05-07T01:12:12.364Z,83.36
2019-05-07T01:13:12.470Z,83.26
2019-05-07T01:14:12.313Z,83.01
2019-05-07T01:15:12.662Z,82.84
2019-05-07T01:16:10.282Z,82.12
2019-05-07T01:17:10.228Z,83.36
2019-05-07T01:18:12.182Z,83.15
2019-05-07T01:19:12.379Z,83.42
2019-05-07T01:20:12.418Z,83.15
2019-05-07T01:21:10.201Z,83.56
2019-05-07T01:22:12.474Z,83.15
2019-05-07T01:23:10.170Z,82.95
2019-05-07T01:24:12.238Z,83.47
2019-05-07T01:25:10.151Z,82.89
2019-05-07T01:26:12.286Z,82.64
2019-05-07T01:27:10.126Z,82.02
2019-05-07T01:28:10.121Z,82.12
2019-05-07T01:29:10.104Z,82.16
2019-05-07T01:30:10.096Z,81.81
2019-05-07T01:31:10.088Z,82.02
2019-05-07T01:32:10.091Z,81.96
2019-05-07T01:33:12.160Z,82.37
2019-05-07T01:34:12.061Z,82.57
2019-05-07T01:35:10.041Z,83.05
2019-05-07T01:36:10.035Z,83.61
2019-05-07T01:37:12.279Z,83.56
2019-05-07T01:38:12.235Z,83.19
2019-05-07T01:39:10.002Z,83.15
2019-05-07T01:40:12.117Z,82.95
2019-05-07T01:41:12.347Z,83.29
2019-05-07T01:42:09.988Z,83.61
2019-05-07T01:43:11.943Z,83.98
2019-05-07T01:44:09.956Z,83.81
2019-05-07T01:45:09.943Z,83.67
2019-05-07T01:46:12.146Z,83.36
2019-05-07T01:47:09.927Z,83.05
2019-05-07T01:48:11.802Z,83.15
2019-05-07T01:49:12.033Z,83.56
2019-05-07T01:50:09.891Z,83.87
2019-05-07T01:51:09.883Z,83.98
2019-05-07T01:52:09.882Z,83.15
2019-05-07T01:53:12.127Z,83.87
2019-05-07T01:54:09.849Z,83.61
2019-05-07T01:55:09.853Z,83.50
2019-05-07T01:56:12.252Z,83.81
2019-05-07T01:57:12.115Z,83.77
2019-05-07T01:58:09.818Z,83.29
2019-05-07T01:59:11.929Z,83.77
2019-05-07T02:00:09.781Z,83.15
2019-05-07T02:01:09.771Z,83.05
2019-05-07T02:02:09.793Z,83.26
2019-05-07T02:03:09.761Z,83.26
2019-05-07T02:04:09.745Z,83.71
2019-05-07T02:05:09.734Z,83.56
2019-05-07T02:06:09.720Z,83.29
2019-05-07T02:07:11.851Z,83.47
2019-05-07T02:08:09.714Z,83.36
2019-05-07T02:09:10.893Z,82.89
2019-05-07T02:10:11.858Z,83.40
2019-05-07T02:11:09.673Z,83.09
2019-05-07T02:12:09.656Z,83.36
2019-05-07T02:13:09.658Z,83.26
2019-05-07T02:14:09.642Z,83.71
2019-05-07T02:15:11.835Z,83.47
2019-05-07T02:16:09.624Z,83.40
2019-05-07T02:17:09.621Z,83.71
2019-05-07T02:18:09.609Z,83.09
2019-05-07T02:19:09.588Z,84.01
2019-05-07T02:20:09.582Z,83.61
2019-05-07T02:21:09.564Z,84.12
2019-05-07T02:22:09.577Z,83.81
2019-05-07T02:23:09.562Z,85.25
2019-05-07T02:24:09.529Z,84.22
2019-05-07T02:25:09.524Z,83.81
2019-05-07T02:26:09.516Z,84.01
2019-05-07T02:27:09.509Z,83.81
2019-05-07T02:28:09.509Z,83.91
2019-05-07T02:29:09.494Z,84.01
2019-05-07T02:30:09.470Z,83.91
2019-05-07T02:31:09.468Z,84.19
2019-05-07T02:32:09.451Z,84.19
2019-05-07T02:33:09.453Z,83.87
2019-05-07T02:34:09.435Z,84.12
2019-05-07T02:35:09.423Z,84.64
2019-05-07T02:36:09.419Z,85.15
2019-05-07T02:37:09.405Z,85.05
2019-05-07T02:38:09.408Z,85.05
2019-05-07T02:39:09.383Z,84.43
2019-05-07T02:40:09.371Z,85.11
2019-05-07T02:41:09.363Z,84.43
2019-05-07T02:42:09.354Z,84.53
2019-05-07T02:43:09.349Z,84.94
2019-05-07T02:44:09.327Z,85.05
2019-05-07T02:45:09.317Z,84.84
2019-05-07T02:46:25.046Z,84.22
2019-05-07T02:47:12.833Z,83.71
2019-05-07T02:48:09.321Z,84.12
2019-05-07T02:49:09.283Z,84.64
2019-05-07T02:50:09.275Z,84.94
2019-05-07T02:51:09.258Z,84.53
2019-05-07T02:52:09.268Z,84.84
2019-05-07T02:53:09.232Z,84.84
2019-05-07T02:54:09.242Z,84.94
2019-05-07T02:55:09.220Z,84.94
2019-05-07T02:56:09.204Z,85.05
2019-05-07T02:57:09.192Z,84.84
2019-05-07T02:58:09.207Z,84.12
2019-05-07T02:59:09.189Z,85.05
2019-05-07T03:00:09.165Z,84.94
2019-05-07T03:01:09.155Z,84.94
2019-05-07T03:02:09.146Z,84.94
2019-05-07T03:03:09.135Z,84.84
2019-05-07T03:04:09.136Z,84.84
2019-05-07T03:05:09.106Z,84.78
2019-05-07T03:06:09.106Z,85.25
2019-05-07T03:07:09.109Z,85.19
2019-05-07T03:08:09.084Z,85.57
2019-05-07T03:09:09.085Z,85.60
2019-05-07T03:10:09.054Z,85.15
2019-05-07T03:11:09.044Z,84.64
2019-05-07T03:12:09.040Z,84.94
2019-05-07T03:13:09.033Z,85.05
2019-05-07T03:14:09.044Z,84.64
2019-05-07T03:15:09.008Z,84.53
2019-05-07T03:16:08.993Z,84.43
2019-05-07T03:17:08.985Z,84.84
2019-05-07T03:18:08.979Z,84.64
2019-05-07T03:19:08.980Z,84.74
2019-05-07T03:20:08.959Z,84.84
2019-05-07T03:21:08.953Z,84.74
2019-05-07T03:22:08.938Z,85.05
2019-05-07T03:23:08.919Z,84.94
2019-05-07T03:24:08.923Z,84.94
2019-05-07T03:25:08.904Z,84.94
2019-05-07T03:26:08.898Z,84.94
2019-05-07T03:27:08.887Z,85.05
2019-05-07T03:28:08.865Z,85.05
2019-05-07T03:29:08.866Z,85.25
2019-05-07T03:30:08.857Z,85.25
2019-05-07T03:31:08.848Z,85.15
2019-05-07T03:32:08.838Z,85.15
2019-05-07T03:33:08.826Z,85.25
2019-05-07T03:34:08.819Z,85.15
2019-05-07T03:35:08.792Z,85.36
2019-05-07T03:36:08.786Z,85.46
2019-05-07T03:37:08.779Z,85.05
2019-05-07T03:38:08.767Z,85.05
2019-05-07T03:39:08.783Z,85.15
2019-05-07T03:40:08.750Z,85.15
2019-05-07T03:41:08.743Z,85.57
2019-05-07T03:42:08.720Z,85.15
2019-05-07T03:43:08.718Z,85.36
2019-05-07T03:44:08.706Z,84.94
2019-05-07T03:45:09.685Z,85.46
2019-05-07T03:46:08.680Z,85.36
2019-05-07T03:47:08.676Z,85.36
2019-05-07T03:48:08.660Z,85.25
2019-05-07T03:49:08.650Z,85.36
2019-05-07T03:50:08.658Z,85.15
2019-05-07T03:51:08.636Z,85.46
2019-05-07T03:52:08.623Z,85.46
2019-05-07T03:53:08.611Z,85.15
2019-05-07T03:54:08.595Z,85.15
2019-05-07T03:55:08.600Z,85.46
2019-05-07T03:56:08.574Z,85.25
2019-05-07T03:57:11.260Z,85.25
2019-05-07T03:58:09.555Z,85.67
2019-05-07T03:59:08.553Z,85.73
2019-05-07T04:00:08.542Z,85.46
2019-05-07T04:01:08.520Z,85.57
2019-05-07T04:02:08.514Z,85.22
2019-05-07T04:03:08.512Z,85.25
2019-05-07T04:04:08.508Z,85.57
2019-05-07T04:05:08.498Z,85.63
2019-05-07T04:06:08.467Z,85.83
2019-05-07T04:07:08.456Z,85.73
2019-05-07T04:08:08.453Z,85.77
2019-05-07T04:09:08.447Z,85.57
2019-05-07T04:10:10.303Z,85.63
2019-05-07T04:11:09.423Z,85.63
2019-05-07T04:12:08.416Z,85.63
2019-05-07T04:13:08.400Z,85.36
2019-05-07T04:14:08.389Z,85.25
2019-05-07T04:15:08.389Z,84.80
2019-05-07T04:16:08.375Z,85.42
2019-05-07T04:17:22.363Z,84.70
2019-05-07T04:18:09.349Z,85.11
2019-05-07T04:19:08.344Z,85.11
2019-05-07T04:20:08.341Z,85.01
2019-05-07T04:21:08.316Z,85.01
2019-05-07T04:22:08.311Z,84.80
2019-05-07T04:23:08.299Z,85.01
2019-05-07T04:24:08.281Z,85.11
2019-05-07T04:25:08.290Z,85.01
2019-05-07T04:26:08.270Z,85.11
2019-05-07T04:27:08.261Z,84.59
2019-05-07T04:28:08.248Z,83.77
2019-05-07T04:29:08.238Z,83.56
2019-05-07T04:30:08.251Z,83.36
2019-05-07T04:31:08.213Z,83.56
2019-05-07T04:32:08.210Z,83.67
2019-05-07T04:33:08.199Z,83.67
2019-05-07T04:34:08.181Z,83.98
2019-05-07T04:35:08.198Z,83.84
2019-05-07T04:36:08.174Z,83.98
2019-05-07T04:37:08.152Z,83.94
2019-05-07T04:38:08.150Z,83.84
2019-05-07T04:39:08.139Z,83.01
2019-05-07T04:40:08.125Z,83.53
2019-05-07T04:41:08.124Z,83.01
2019-05-07T04:42:08.094Z,83.39
2019-05-07T04:43:08.090Z,83.18
2019-05-07T04:44:08.079Z,82.35
2019-05-07T04:45:08.070Z,82.67
2019-05-07T04:46:08.073Z,82.25
2019-05-07T04:47:08.061Z,82.46
2019-05-07T04:48:08.059Z,81.63
2019-05-07T04:49:08.029Z,81.43
2019-05-07T04:50:08.023Z,81.12
2019-05-07T04:51:08.022Z,81.95
2019-05-07T04:52:11.352Z,81.43
2019-05-07T04:53:08.992Z,81.84
2019-05-07T04:54:07.977Z,81.43
2019-05-07T04:55:07.970Z,81.12
2019-05-07T04:56:07.982Z,81.02
2019-05-07T04:57:07.944Z,80.81
2019-05-07T04:58:08.972Z,80.77
2019-05-07T04:59:07.934Z,80.81
2019-05-07T05:00:07.920Z,80.36
2019-05-07T05:01:07.923Z,80.57
2019-05-07T05:02:07.886Z,80.67
2019-05-07T05:03:07.880Z,80.91
2019-05-07T05:04:24.355Z,81.19
2019-05-07T05:05:08.873Z,80.77
2019-05-07T05:06:07.855Z,80.67
2019-05-07T05:07:07.832Z,80.47
2019-05-07T05:08:07.821Z,80.36
2019-05-07T05:09:07.854Z,79.54
2019-05-07T05:10:07.806Z,79.64
2019-05-07T05:11:07.824Z,79.71
2019-05-07T05:12:07.785Z,79.64
2019-05-07T05:13:07.773Z,79.71
2019-05-07T05:14:08.169Z,79.71
2019-05-07T05:15:07.746Z,80.02
2019-05-07T05:16:07.763Z,79.40
2019-05-07T05:17:07.723Z,79.40
2019-05-07T05:18:07.727Z,79.40
2019-05-07T05:19:07.708Z,79.09
2019-05-07T05:20:07.703Z,77.96
2019-05-07T05:21:07.683Z,78.37
2019-05-07T05:22:07.684Z,77.14
2019-05-07T05:23:07.664Z,76.52
2019-05-07T05:24:07.661Z,76.62
2019-05-07T05:25:07.645Z,77.34
2019-05-07T05:26:07.653Z,77.45
2019-05-07T05:27:07.634Z,78.03
2019-05-07T05:28:07.610Z,78.03
2019-05-07T05:29:07.606Z,76.79
2019-05-07T05:30:07.596Z,76.07
2019-05-07T05:31:07.591Z,75.63
2019-05-07T05:32:07.593Z,75.01
2019-05-07T05:33:07.569Z,74.67
2019-05-07T05:34:07.573Z,74.67
2019-05-07T05:35:07.533Z,73.95
2019-05-07T05:36:07.526Z,73.64
2019-05-07T05:37:07.539Z,73.33
2019-05-07T05:38:07.496Z,73.16
2019-05-07T05:39:07.487Z,72.96
2019-05-07T05:40:08.940Z,72.92
2019-05-07T05:41:07.476Z,72.72
2019-05-07T05:42:07.486Z,71.39
2019-05-07T05:43:07.466Z,68.32
2019-05-07T05:44:07.441Z,69.27
2019-05-07T05:45:07.459Z,69.92
2019-05-07T05:46:07.421Z,69.23
2019-05-07T05:47:07.408Z,69.33
2019-05-07T05:48:08.590Z,67.80
2019-05-07T05:49:07.387Z,65.73
2019-05-07T05:50:07.375Z,63.12
2019-05-07T05:51:07.367Z,60.94
2019-05-07T05:52:07.370Z,62.10
2019-05-07T05:53:07.349Z,61.79
2019-05-07T05:54:07.339Z,59.03
2019-05-07T05:55:07.329Z,57.83
2019-05-07T05:56:07.313Z,59.59
2019-05-07T05:57:07.324Z,61.69
2019-05-07T05:58:07.291Z,56.60
2019-05-07T05:59:07.277Z,57.09
2019-05-07T06:00:07.272Z,60.05
2019-05-07T06:01:07.264Z,62.23
2019-05-07T06:02:07.247Z,60.16
2019-05-07T06:03:07.257Z,57.32
2019-05-07T06:04:07.228Z,58.70
2019-05-07T06:05:07.220Z,60.42
2019-05-07T06:06:07.205Z,61.80
2019-05-07T06:07:11.450Z,63.29
2019-05-07T06:08:08.202Z,64.42
2019-05-07T06:09:07.174Z,61.38
2019-05-07T06:10:07.159Z,58.93
2019-05-07T06:11:07.158Z,55.99
2019-05-07T06:12:07.146Z,51.59
2019-05-07T06:13:07.156Z,48.83
2019-05-07T06:14:07.134Z,50.48
2019-05-07T06:15:07.114Z,50.90
2019-05-07T06:16:07.108Z,53.63
2019-05-07T06:17:07.098Z,55.26
2019-05-07T06:18:18.763Z,54.90
2019-05-07T06:19:08.078Z,56.35
2019-05-07T06:20:07.060Z,56.81
2019-05-07T06:21:07.054Z,52.78
2019-05-07T06:22:07.046Z,53.78
2019-05-07T06:23:07.103Z,53.70
2019-05-07T06:24:07.054Z,49.27
2019-05-07T06:25:07.205Z,45.69
2019-05-07T06:26:07.011Z,43.08
2019-05-07T06:27:06.988Z,41.41
2019-05-07T06:28:06.973Z,40.95
2019-05-07T06:29:06.973Z,40.81
2019-05-07T06:30:06.942Z,39.60
2019-05-07T06:31:06.933Z,38.07
2019-05-07T06:32:06.924Z,37.15
2019-05-07T06:33:06.913Z,37.13
2019-05-07T06:34:06.934Z,37.72
2019-05-07T06:35:06.905Z,38.81
2019-05-07T06:36:06.888Z,39.03
2019-05-07T06:37:06.875Z,40.04
2019-05-07T06:38:06.861Z,39.14
2019-05-07T06:39:06.847Z,39.98
2019-05-07T06:40:06.855Z,40.89
2019-05-07T06:41:06.834Z,42.74
2019-05-07T06:42:06.820Z,46.51
2019-05-07T06:43:06.804Z,44.78
2019-05-07T06:44:06.804Z,43.37
2019-05-07T06:45:06.803Z,47.99
2019-05-07T06:46:06.782Z,49.40
2019-05-07T06:47:06.771Z,50.25
2019-05-07T06:48:06.760Z,48.34
2019-05-07T06:49:06.748Z,50.26
2019-05-07T06:50:06.750Z,52.40
2019-05-07T06:51:06.721Z,53.98
2019-05-07T06:52:06.711Z,54.44
2019-05-07T06:53:06.703Z,52.02
2019-05-07T06:54:06.697Z,52.09
2019-05-07T06:55:06.706Z,49.48
2019-05-07T06:56:06.666Z,46.29
2019-05-07T06:57:06.682Z,49.10
2019-05-07T06:58:06.651Z,50.90
2019-05-07T06:59:06.643Z,52.40
2019-05-07T07:00:06.629Z,53.70
2019-05-07T07:01:06.642Z,54.46
2019-05-07T07:02:06.609Z,54.80
2019-05-07T07:03:06.598Z,54.59
2019-05-07T07:04:06.591Z,58.04
2019-05-07T07:05:06.573Z,48.97
2019-05-07T07:06:06.580Z,44.26
2019-05-07T07:07:06.554Z,45.09
2019-05-07T07:08:06.548Z,46.17
2019-05-07T07:09:06.563Z,43.81
2019-05-07T07:10:06.528Z,43.14
2019-05-07T07:11:06.527Z,40.39
2019-05-07T07:12:06.503Z,38.17
2019-05-07T07:13:06.491Z,36.54
2019-05-07T07:14:06.477Z,38.31
2019-05-07T07:15:06.527Z,41.78
2019-05-07T07:16:06.467Z,45.34
2019-05-07T07:17:06.443Z,47.06
2019-05-07T07:18:06.437Z,43.55
2019-05-07T07:19:06.427Z,41.16
2019-05-07T07:20:06.419Z,37.78
2019-05-07T07:21:06.427Z,36.57
2019-05-07T07:22:06.391Z,34.11
2019-05-07T07:23:06.384Z,33.19
2019-05-07T07:24:06.374Z,36.46
2019-05-07T07:25:06.665Z,39.08
2019-05-07T07:26:06.383Z,40.80
2019-05-07T07:27:06.345Z,42.98
2019-05-07T07:28:06.328Z,43.00
2019-05-07T07:29:06.323Z,43.87
2019-05-07T07:30:06.314Z,45.34
2019-05-07T07:31:06.303Z,46.50
2019-05-07T07:32:06.306Z,48.58
2019-05-07T07:33:06.282Z,48.39
2019-05-07T07:34:06.267Z,42.78
2019-05-07T07:35:06.251Z,38.18
2019-05-07T07:36:06.243Z,36.22
2019-05-07T07:37:10.909Z,38.76
2019-05-07T07:38:07.238Z,40.89
2019-05-07T07:39:06.222Z,43.73
2019-05-07T07:40:06.224Z,42.69
2019-05-07T07:41:06.198Z,41.38
2019-05-07T07:42:06.206Z,37.59
2019-05-07T07:43:07.127Z,34.96
2019-05-07T07:44:06.164Z,33.27
2019-05-07T07:45:06.159Z,32.82
2019-05-07T07:46:06.136Z,31.37
2019-05-07T07:47:06.124Z,30.94
2019-05-07T07:48:06.131Z,33.27
2019-05-07T07:49:10.985Z,35.44
2019-05-07T07:50:07.101Z,33.65
2019-05-07T07:51:06.099Z,31.83
2019-05-07T07:52:06.130Z,29.47
2019-05-07T07:53:06.223Z,29.31
2019-05-07T07:54:06.056Z,28.48
2019-05-07T07:55:06.046Z,28.74
2019-05-07T07:56:06.035Z,28.31
2019-05-07T07:57:06.033Z,27.51
2019-05-07T07:58:06.029Z,28.75
2019-05-07T07:59:06.030Z,29.81
2019-05-07T08:00:05.995Z,32.31
2019-05-07T08:01:05.984Z,32.00
2019-05-07T08:02:05.978Z,29.84
2019-05-07T08:03:05.981Z,29.85
2019-05-07T08:04:05.967Z,28.82
2019-05-07T08:05:05.940Z,28.48
2019-05-07T08:06:05.948Z,27.67
2019-05-07T08:07:05.914Z,27.02
2019-05-07T08:08:05.913Z,25.59
2019-05-07T08:09:05.914Z,25.15
2019-05-07T08:10:05.886Z,26.33
2019-05-07T08:11:05.875Z,28.92
2019-05-07T08:12:06.081Z,28.47
2019-05-07T08:13:05.859Z,27.55
2019-05-07T08:14:05.862Z,28.92
2019-05-07T08:15:16.676Z,29.93
2019-05-07T08:16:06.828Z,28.74
2019-05-07T08:17:05.816Z,27.92
2019-05-07T08:18:05.805Z,27.64
2019-05-07T08:19:18.335Z,27.58
2019-05-07T08:20:06.787Z,28.86
2019-05-07T08:21:07.957Z,29.95
2019-05-07T08:22:05.773Z,31.13
2019-05-07T08:23:05.758Z,30.12
2019-05-07T08:24:05.767Z,27.82
2019-05-07T08:25:05.742Z,26.65
2019-05-07T08:26:05.732Z,25.71
2019-05-07T08:27:05.709Z,24.17
2019-05-07T08:28:05.701Z,24.34
2019-05-07T08:29:05.693Z,22.92
2019-05-07T08:30:05.701Z,24.09
2019-05-07T08:31:05.683Z,26.98
2019-05-07T08:32:05.663Z,29.28
2019-05-07T08:33:05.647Z,30.47
2019-05-07T08:34:05.649Z,32.47
2019-05-07T08:35:05.665Z,33.53
2019-05-07T08:36:05.621Z,33.98
2019-05-07T08:37:05.635Z,31.52
2019-05-07T08:38:05.602Z,28.98
2019-05-07T08:39:05.589Z,26.48
2019-05-07T08:40:05.578Z,25.22
2019-05-07T08:41:05.575Z,23.38
2019-05-07T08:42:05.562Z,22.96
2019-05-07T08:43:05.563Z,21.94
2019-05-07T08:44:11.453Z,21.53
2019-05-07T08:45:06.554Z,22.13
2019-05-07T08:46:05.530Z,22.02
2019-05-07T08:47:05.501Z,21.52
2019-05-07T08:48:05.503Z,21.84
2019-05-07T08:49:05.495Z,23.47
2019-05-07T08:50:05.473Z,25.89
2019-05-07T08:51:05.493Z,25.15
2019-05-07T08:52:05.451Z,24.62
2019-05-07T08:53:05.440Z,23.99
2019-05-07T08:54:05.447Z,25.17
2019-05-07T08:55:05.435Z,26.84
2019-05-07T08:56:05.418Z,28.30
2019-05-07T08:57:05.422Z,26.61
2019-05-07T08:58:05.395Z,25.26
2019-05-07T08:59:05.394Z,24.62
2019-05-07T09:00:05.377Z,23.91
2019-05-07T09:01:05.371Z,23.18
2019-05-07T09:02:05.386Z,23.49
2019-05-07T09:03:18.612Z,22.28
2019-05-07T09:04:06.332Z,21.85
2019-05-07T09:05:05.332Z,23.50
2019-05-07T09:06:05.321Z,24.73
2019-05-07T09:07:05.362Z,27.78
2019-05-07T09:08:05.311Z,27.04
2019-05-07T09:09:05.290Z,28.72
2019-05-07T09:10:05.273Z,29.91
2019-05-07T09:11:05.270Z,31.26
2019-05-07T09:12:05.387Z,32.10
2019-05-07T09:13:05.247Z,33.22
2019-05-07T09:14:05.247Z,34.15
2019-05-07T09:15:05.231Z,34.08
2019-05-07T09:16:05.220Z,33.89
2019-05-07T09:17:05.288Z,34.25
2019-05-07T09:18:05.192Z,34.67
2019-05-07T09:19:05.182Z,34.31
2019-05-07T09:20:05.186Z,29.71
2019-05-07T09:21:05.159Z,28.60
2019-05-07T09:22:05.145Z,26.83
2019-05-07T09:23:05.152Z,25.41
2019-05-07T09:24:05.128Z,25.67
2019-05-07T09:25:05.117Z,25.43
2019-05-07T09:26:05.132Z,24.32
2019-05-07T09:27:05.103Z,24.10
2019-05-07T09:28:05.120Z,23.90
2019-05-07T09:29:05.092Z,23.60
2019-05-07T09:30:05.792Z,23.66
2019-05-07T09:31:05.056Z,22.53
2019-05-07T09:32:05.061Z,22.11
2019-05-07T09:33:05.054Z,23.34
2019-05-07T09:34:05.033Z,23.79
2019-05-07T09:35:05.036Z,23.79
2019-05-07T09:36:05.006Z,23.88
2019-05-07T09:37:05.003Z,23.98
2019-05-07T09:38:05.009Z,24.90
2019-05-07T09:39:04.986Z,28.01
2019-05-07T09:40:04.973Z,28.58
2019-05-07T09:41:04.972Z,29.57
2019-05-07T09:42:04.945Z,30.90
2019-05-07T09:43:04.954Z,31.36
2019-05-07T09:44:04.930Z,32.03
2019-05-07T09:45:04.923Z,32.17
2019-05-07T09:46:04.913Z,33.71
2019-05-07T09:47:04.913Z,33.62
2019-05-07T09:48:04.916Z,31.73
2019-05-07T09:49:04.886Z,32.25
2019-05-07T09:50:08.012Z,32.17
2019-05-07T09:51:04.848Z,32.56
2019-05-07T09:52:06.069Z,29.57
2019-05-07T09:53:04.841Z,27.14
2019-05-07T09:54:04.835Z,25.65
2019-05-07T09:55:14.049Z,25.09
2019-05-07T09:56:05.798Z,23.85
2019-05-07T09:57:04.787Z,22.32
2019-05-07T09:58:04.788Z,21.99
2019-05-07T09:59:04.790Z,21.38
2019-05-07T10:00:04.766Z,21.55
2019-05-07T10:01:04.770Z,21.15
2019-05-07T10:02:04.743Z,22.41
2019-05-07T10:03:04.735Z,23.82
2019-05-07T10:04:04.745Z,25.17
2019-05-07T10:05:04.715Z,24.76
2019-05-07T10:06:04.711Z,24.44
2019-05-07T10:07:04.701Z,23.61
2019-05-07T10:08:04.683Z,23.36
2019-05-07T10:09:04.692Z,23.68
2019-05-07T10:10:04.667Z,22.43
2019-05-07T10:11:04.656Z,21.62
2019-05-07T10:12:04.649Z,21.60
2019-05-07T10:13:04.643Z,21.19
2019-05-07T10:14:04.651Z,21.37
2019-05-07T10:15:04.613Z,20.76
2019-05-07T10:16:07.575Z,19.37
2019-05-07T10:17:04.589Z,21.09
2019-05-07T10:18:04.592Z,20.76
2019-05-07T10:19:04.592Z,21.46
2019-05-07T10:20:18.299Z,20.35
2019-05-07T10:21:05.563Z,20.73
2019-05-07T10:22:04.553Z,21.87
2019-05-07T10:23:04.536Z,22.47
2019-05-07T10:24:04.531Z,24.22
2019-05-07T10:25:04.535Z,24.99
2019-05-07T10:26:04.504Z,24.25
2019-05-07T10:27:04.507Z,22.52
2019-05-07T10:28:04.495Z,21.41
2019-05-07T10:29:04.479Z,21.68
2019-05-07T10:30:04.490Z,22.17
2019-05-07T10:31:04.468Z,21.56
2019-05-07T10:32:04.462Z,19.80
2019-05-07T10:33:04.453Z,21.33
2019-05-07T10:34:04.455Z,21.41
2019-05-07T10:35:04.456Z,22.38
2019-05-07T10:36:04.420Z,23.44
2019-05-07T10:37:04.403Z,24.13
2019-05-07T10:38:04.414Z,24.26
2019-05-07T10:39:04.390Z,25.51
2019-05-07T10:40:04.375Z,27.36
2019-05-07T10:41:04.381Z,27.10
2019-05-07T10:42:04.358Z,27.83
2019-05-07T10:43:04.352Z,27.55
2019-05-07T10:44:04.346Z,27.64
2019-05-07T10:45:04.326Z,27.93
2019-05-07T10:46:04.326Z,27.29
2019-05-07T10:47:04.301Z,27.37
2019-05-07T10:48:04.299Z,27.89
2019-05-07T10:49:04.280Z,28.01
2019-05-07T10:50:04.285Z,29.13
2019-05-07T10:51:04.295Z,29.74
2019-05-07T10:52:04.265Z,29.06
2019-05-07T10:53:04.249Z,29.27
2019-05-07T10:54:04.232Z,29.19
2019-05-07T10:55:04.221Z,30.30
2019-05-07T10:56:04.237Z,28.88
2019-05-07T10:57:04.204Z,30.08
2019-05-07T10:58:04.187Z,28.47
2019-05-07T10:59:04.178Z,28.17
2019-05-07T11:00:04.169Z,28.59
2019-05-07T11:01:04.171Z,29.63
2019-05-07T11:02:04.153Z,29.64
2019-05-07T11:03:04.142Z,30.27
2019-05-07T11:04:04.134Z,31.18
2019-05-07T11:05:04.122Z,30.47
2019-05-07T11:06:04.120Z,31.22
2019-05-07T11:07:04.094Z,31.22
2019-05-07T11:08:04.086Z,29.20
2019-05-07T11:09:04.069Z,28.34
2019-05-07T11:10:04.070Z,27.78
2019-05-07T11:11:04.080Z,25.59
2019-05-07T11:12:04.062Z,25.42
2019-05-07T11:13:04.029Z,23.15
2019-05-07T11:14:04.026Z,23.00
2019-05-07T11:15:04.018Z,22.00
2019-05-07T11:16:04.020Z,21.17
2019-05-07T11:17:04.018Z,20.87
2019-05-07T11:18:03.979Z,21.92
2019-05-07T11:19:03.977Z,20.50
2019-05-07T11:20:03.960Z,22.96
2019-05-07T11:21:03.960Z,25.04
2019-05-07T11:22:03.965Z,26.62
2019-05-07T11:23:03.937Z,28.27
2019-05-07T11:24:03.931Z,28.50
2019-05-07T11:25:03.930Z,28.30
2019-05-07T11:26:03.900Z,28.34
2019-05-07T11:27:03.917Z,27.19
2019-05-07T11:28:03.892Z,26.81
2019-05-07T11:29:03.877Z,26.14
2019-05-07T11:30:03.868Z,25.42
2019-05-07T11:31:03.860Z,23.26
2019-05-07T11:32:03.840Z,22.73
2019-05-07T11:33:03.852Z,22.10
2019-05-07T11:34:03.856Z,20.38
2019-05-07T11:35:03.814Z,19.96
2019-05-07T11:36:03.809Z,19.65
2019-05-07T11:37:03.799Z,21.17
2019-05-07T11:38:17.424Z,23.26
2019-05-07T11:39:04.780Z,25.54
2019-05-07T11:40:03.773Z,26.98
2019-05-07T11:41:03.750Z,27.11
2019-05-07T11:42:03.747Z,28.16
2019-05-07T11:43:03.743Z,27.80
2019-05-07T11:44:03.755Z,26.58
2019-05-07T11:45:03.712Z,27.22
2019-05-07T11:46:03.716Z,28.89
2019-05-07T11:47:03.727Z,29.52
2019-05-07T11:48:04.370Z,29.43
2019-05-07T11:49:03.701Z,30.67
2019-05-07T11:50:03.675Z,29.88
2019-05-07T11:51:04.451Z,30.19
2019-05-07T11:52:03.644Z,30.48
2019-05-07T11:53:03.629Z,29.91
2019-05-07T11:54:03.643Z,30.21
2019-05-07T11:55:03.619Z,30.41
2019-05-07T11:56:03.599Z,29.80
2019-05-07T11:57:03.662Z,28.85
2019-05-07T11:58:03.591Z,27.87
2019-05-07T11:59:03.593Z,24.55
2019-05-07T12:00:03.560Z,23.37
2019-05-07T12:01:03.947Z,22.24
2019-05-07T12:02:03.534Z,22.24
2019-05-07T12:03:03.524Z,22.16
2019-05-07T12:04:03.511Z,22.93
2019-05-07T12:05:03.520Z,24.37
2019-05-07T12:06:03.507Z,24.31
2019-05-07T12:07:03.484Z,26.99
2019-05-07T12:08:03.472Z,28.32
2019-05-07T12:09:03.467Z,29.46
2019-05-07T12:10:05.028Z,28.68
2019-05-07T12:11:03.441Z,28.49
2019-05-07T12:12:03.438Z,29.60
2019-05-07T12:13:03.427Z,29.59
2019-05-07T12:14:03.412Z,28.49
2019-05-07T12:15:03.419Z,29.08
2019-05-07T12:16:03.397Z,29.69
2019-05-07T12:17:03.374Z,28.77
2019-05-07T12:18:03.382Z,29.26
2019-05-07T12:19:03.364Z,29.06
2019-05-07T12:20:03.366Z,28.32
2019-05-07T12:21:16.755Z,29.64
2019-05-07T12:22:04.325Z,29.36
2019-05-07T12:23:03.321Z,29.36
2019-05-07T12:24:03.312Z,29.49
2019-05-07T12:25:03.324Z,30.30
2019-05-07T12:26:03.285Z,30.19
2019-05-07T12:27:03.281Z,29.59
2019-05-07T12:28:03.262Z,30.40
2019-05-07T12:29:03.254Z,28.98
2019-05-07T12:30:03.248Z,27.01
2019-05-07T12:31:03.260Z,23.31
2019-05-07T12:32:03.220Z,21.93
2019-05-07T12:33:03.240Z,22.60
2019-05-07T12:34:03.201Z,24.15
2019-05-07T12:35:03.195Z,23.97
2019-05-07T12:36:03.208Z,24.40
2019-05-07T12:37:03.171Z,25.56
2019-05-07T12:38:03.159Z,26.07
2019-05-07T12:39:03.149Z,26.91
2019-05-07T12:40:03.167Z,28.45
2019-05-07T12:41:03.169Z,28.17
2019-05-07T12:42:03.133Z,28.91
2019-05-07T12:43:03.113Z,29.11
2019-05-07T12:44:03.095Z,28.61
2019-05-07T12:45:03.090Z,28.81
2019-05-07T12:46:03.084Z,29.61
2019-05-07T12:47:03.086Z,28.74
2019-05-07T12:48:03.050Z,26.32
2019-05-07T12:49:03.389Z,25.83
2019-05-07T12:50:03.041Z,24.41
2019-05-07T12:51:03.034Z,24.75
2019-05-07T12:52:03.033Z,26.28